Time;durP1;ratioP1;P1;durP2;ratioP2;P2;SDS_P1;SDS_P2;PMS_P1;PMS_P2;Temp;Humidity;BMP_temperature;BMP_pressure;BME280_temperature;BME280_humidity;BME280_pressure;Samples;Min_cycle;Max_cycle;Signal;HPM_P1;HPM_P2
2022/03/14 00:00:22;;;;;;;;;9.75;9.75;;;;;10.83;40.31;100017.22;5116896;28;8835;-64
2022/03/14 00:02:50;;;;;;;;;14.40;13.00;;;;;10.81;40.67;100023.63;5116538;28;8849;-63
2022/03/14 00:05:17;;;;;;;;;17.60;15.40;;;;;10.77;40.66;100028.38;5117659;28;8853;-64
2022/03/14 00:07:46;;;;;;;;;12.20;10.40;;;;;10.75;40.88;100024.97;5118582;28;9608;-63
2022/03/14 00:10:15;;;;;;;;;19.00;15.00;;;;;10.76;40.75;100031.16;5117096;28;8850;-63
2022/03/14 00:12:43;;;;;;;;;15.00;12.00;;;;;10.76;41.04;100029.34;5117453;28;8920;-64
2022/03/14 00:15:11;;;;;;;;;9.80;9.00;;;;;10.75;40.80;100024.97;5117986;28;8875;-64
2022/03/14 00:17:40;;;;;;;;;11.60;9.60;;;;;10.76;40.73;100028.50;5118360;28;8824;-63
2022/03/14 00:20:11;;;;;;;;;10.20;10.00;;;;;10.75;40.66;100030.31;5117586;28;8881;-63
2022/03/14 00:22:38;;;;;;;;;8.20;6.40;;;;;10.79;40.84;100030.91;5117284;28;8865;-63
2022/03/14 00:25:06;;;;;;;;;9.60;9.00;;;;;10.80;40.43;100036.13;5097372;28;8849;-63
2022/03/14 00:27:35;;;;;;;;;9.60;8.60;;;;;10.82;40.90;100035.97;5097244;28;8845;-63
2022/03/14 00:30:04;;;;;;;;;11.25;10.50;;;;;10.84;40.72;100034.91;5096415;28;8834;-63
2022/03/14 00:32:32;;;;;;;;;11.60;11.60;;;;;10.85;40.63;100036.59;5096851;28;8830;-63
2022/03/14 00:35:00;;;;;;;;;15.20;12.80;;;;;10.84;40.74;100034.91;5097408;28;8856;-64
2022/03/14 00:37:27;;;;;;;;;13.60;12.40;;;;;10.83;40.52;100038.53;5096645;28;8833;-63
2022/03/14 00:39:55;;;;;;;;;15.00;14.20;;;;;10.84;40.70;100034.06;5097371;28;8843;-63
2022/03/14 00:42:25;;;;;;;;;18.00;15.20;;;;;10.84;40.67;100045.56;5096246;28;8830;-63
2022/03/14 00:44:52;;;;;;;;;10.40;9.80;;;;;10.84;40.83;100040.22;5096640;28;8848;-63
2022/03/14 00:47:21;;;;;;;;;16.00;15.60;;;;;10.84;41.06;100042.91;5097291;28;8830;-63
2022/03/14 00:49:49;;;;;;;;;18.80;15.20;;;;;10.85;40.99;100052.56;5097337;28;8837;-63
2022/03/14 00:52:17;;;;;;;;;14.20;12.40;;;;;10.84;40.80;100040.22;5114562;28;8958;-64
2022/03/14 00:54:45;;;;;;;;;12.80;9.60;;;;;10.85;40.87;100041.09;5116984;28;8828;-63
2022/03/14 00:57:13;;;;;;;;;13.00;12.80;;;;;10.85;40.82;100049.09;5117572;28;8836;-67
2022/03/14 00:59:40;;;;;;;;;18.20;14.60;;;;;10.83;40.63;100043.88;5117478;28;8853;-64
2022/03/14 01:02:08;;;;;;;;;17.00;15.75;;;;;10.80;40.68;100045.91;5117025;28;8865;-63
2022/03/14 01:04:36;;;;;;;;;18.20;16.00;;;;;10.78;40.46;100050.53;5116947;28;8858;-65
2022/03/14 01:07:04;;;;;;;;;10.00;9.50;;;;;10.76;41.04;100053.31;5117002;28;8856;-64
2022/03/14 01:09:31;;;;;;;;;13.00;12.80;;;;;10.74;40.95;100052.59;5117075;28;8831;-64
2022/03/14 01:11:59;;;;;;;;;14.20;14.20;;;;;10.72;41.00;100059.00;5116398;28;8854;-64
2022/03/14 01:14:27;;;;;;;;;14.00;13.20;;;;;10.68;40.95;100058.38;5116876;28;8855;-65
2022/03/14 01:16:55;;;;;;;;;10.40;6.80;;;;;10.65;41.25;100055.13;5116648;28;8835;-63
2022/03/14 01:19:22;;;;;;;;;7.40;7.40;;;;;10.63;41.07;100060.56;5115401;28;8831;-64
2022/03/14 01:21:50;;;;;;;;;15.40;13.20;;;;;10.63;41.35;100063.22;5101643;28;8834;-64
2022/03/14 01:24:18;;;;;;;;;15.20;13.80;;;;;10.63;41.51;100071.19;5096051;28;8822;-63
2022/03/14 01:26:46;;;;;;;;;18.00;16.00;;;;;10.64;41.32;100074.72;5095997;28;8838;-63
2022/03/14 01:29:14;;;;;;;;;15.40;14.40;;;;;10.63;41.58;100092.50;5096047;28;9612;-63
2022/03/14 01:31:42;;;;;;;;;18.00;15.40;;;;;10.66;41.37;100107.41;5096197;28;8822;-63
2022/03/14 01:34:10;;;;;;;;;18.20;16.00;;;;;10.70;41.22;100101.72;5096090;28;8872;-63
2022/03/14 01:36:38;;;;;;;;;12.00;11.60;;;;;10.71;41.33;100103.41;5096093;28;8838;-63
2022/03/14 01:39:05;;;;;;;;;11.20;10.40;;;;;10.72;41.16;100110.47;5095538;28;8836;-63
2022/03/14 01:41:33;;;;;;;;;13.60;12.60;;;;;10.70;40.87;100120.38;5095759;28;8842;-63
2022/03/14 01:44:02;;;;;;;;;13.40;13.00;;;;;10.72;41.29;100117.59;5095541;28;8825;-65
2022/03/14 01:46:29;;;;;;;;;17.80;15.80;;;;;10.71;41.36;100123.88;5095998;28;8841;-64
2022/03/14 01:48:58;;;;;;;;;17.40;16.60;;;;;10.70;41.86;100123.03;5095844;28;8930;-63
2022/03/14 01:51:26;;;;;;;;;13.60;11.40;;;;;10.73;41.45;100127.28;5105409;28;8853;-65
2022/03/14 01:53:54;;;;;;;;;12.00;7.40;;;;;10.75;40.99;100136.84;5116132;28;8858;-63
2022/03/14 01:56:22;;;;;;;;;15.00;14.60;;;;;10.78;41.18;100135.78;5115873;28;8836;-63
2022/03/14 01:58:50;;;;;;;;;13.80;12.60;;;;;10.79;40.95;100138.31;5116234;28;8832;-63
2022/03/14 02:01:18;;;;;;;;;16.00;15.20;;;;;10.80;40.96;100133.81;5115049;28;8848;-63
2022/03/14 02:03:49;;;;;;;;;16.80;16.20;;;;;10.79;41.26;100137.47;5114365;28;9505;-63
2022/03/14 02:06:17;;;;;;;;;15.00;13.80;;;;;10.76;41.21;100143.03;5114672;28;8853;-63
2022/03/14 02:08:45;;;;;;;;;14.60;13.40;;;;;10.73;41.19;100138.78;5114124;28;8824;-64
2022/03/14 02:11:13;;;;;;;;;15.20;13.40;;;;;10.67;41.67;100138.38;5115166;28;8836;-63
2022/03/14 02:13:40;;;;;;;;;15.00;15.00;;;;;10.57;41.83;100140.94;5115787;28;8832;-63
2022/03/14 02:16:08;;;;;;;;;5.20;5.20;;;;;10.42;42.18;100141.25;5115677;28;8828;-65
2022/03/14 02:18:36;;;;;;;;;15.00;11.20;;;;;10.32;42.42;100149.06;5114573;28;8823;-64
2022/03/14 02:21:05;;;;;;;;;11.20;8.20;;;;;10.22;42.55;100148.06;5107360;28;8811;-66
2022/03/14 02:23:33;;;;;;;;;10.40;10.00;;;;;10.15;42.93;100157.47;5095244;28;8818;-66
2022/03/14 02:26:02;;;;;;;;;15.20;14.60;;;;;10.09;42.82;100157.09;5095616;28;8863;-65
2022/03/14 02:28:31;;;;;;;;;15.80;14.20;;;;;10.00;43.10;100166.56;5095576;28;8838;-65
2022/03/14 02:30:59;;;;;;;;;15.20;14.80;;;;;9.88;43.32;100167.44;5095295;28;8992;-65
2022/03/14 02:33:27;;;;;;;;;13.00;13.00;;;;;9.76;44.23;100168.34;5095467;28;8852;-66
2022/03/14 02:35:54;;;;;;;;;3.80;2.60;;;;;9.67;44.14;100169.03;5095116;28;8841;-65
2022/03/14 02:38:22;;;;;;;;;5.60;5.60;;;;;9.59;44.42;100165.22;5095467;28;8848;-66
2022/03/14 02:40:50;;;;;;;;;15.20;14.80;;;;;9.54;44.68;100172.66;5094389;28;8875;-65
2022/03/14 02:43:24;;;;;;;;;13.40;13.40;;;;;9.42;45.45;100182.34;5095174;28;8846;-66
2022/03/14 02:45:52;;;;;;;;;14.20;12.60;;;;;9.27;45.68;100178.13;5094864;28;8810;-67
2022/03/14 02:48:22;;;;;;;;;16.80;15.40;;;;;9.16;45.60;100179.84;5093883;28;8892;-66
2022/03/14 02:50:52;;;;;;;;;20.60;17.00;;;;;9.08;46.07;100185.69;5094669;28;8850;-66
2022/03/14 02:53:20;;;;;;;;;15.00;15.00;;;;;8.98;46.70;100192.59;5094897;28;8968;-66
2022/03/14 02:55:48;;;;;;;;;21.60;18.00;;;;;8.91;47.17;100188.69;5094904;28;9003;-66
2022/03/14 02:58:16;;;;;;;;;18.20;17.80;;;;;8.83;47.45;100193.63;5094887;28;8848;-65
2022/03/14 03:00:43;;;;;;;;;9.40;8.20;;;;;8.77;48.14;100209.16;5094270;28;8854;-65
2022/03/14 03:03:11;;;;;;;;;9.80;9.80;;;;;8.71;49.14;100215.72;5093019;28;8826;-65
2022/03/14 03:05:43;;;;;;;;;19.20;14.20;;;;;8.65;48.80;100216.13;5093561;28;8922;-66
2022/03/14 03:08:11;;;;;;;;;15.80;14.40;;;;;8.59;49.57;100215.72;5098733;28;8826;-65
2022/03/14 03:10:40;;;;;;;;;13.80;13.00;;;;;8.54;49.45;100213.38;5098741;28;8838;-65
2022/03/14 03:13:08;;;;;;;;;17.20;15.20;;;;;8.51;49.89;100229.47;5098256;28;8825;-65
2022/03/14 03:15:41;;;;;;;;;15.00;12.60;;;;;8.46;50.72;100231.63;5113754;28;8820;-64
2022/03/14 03:18:10;;;;;;;;;15.00;12.40;;;;;8.44;50.56;100233.50;5119526;28;9036;-65
2022/03/14 03:20:38;;;;;;;;;15.60;15.60;;;;;8.41;51.12;100240.81;5118764;28;8824;-65
2022/03/14 03:23:05;;;;;;;;;13.00;12.00;;;;;8.39;51.20;100238.28;5119178;28;8857;-64
2022/03/14 03:25:33;;;;;;;;;9.40;9.40;;;;;8.38;51.60;100255.13;5119490;28;8836;-64
2022/03/14 03:28:01;;;;;;;;;14.20;13.80;;;;;8.35;52.03;100252.69;5118373;28;8832;-64
2022/03/14 03:30:28;;;;;;;;;14.20;12.00;;;;;8.36;51.92;100257.03;5119492;28;8836;-64
2022/03/14 03:32:56;;;;;;;;;11.40;11.20;;;;;8.36;51.55;100254.38;5117679;28;8916;-66
2022/03/14 03:35:24;;;;;;;;;13.20;11.60;;;;;8.35;51.95;100260.63;5118529;28;8828;-64
2022/03/14 03:37:51;;;;;;;;;14.20;13.40;;;;;8.37;51.78;100266.69;5118801;28;8820;-65
2022/03/14 03:40:19;;;;;;;;;15.80;13.80;;;;;8.39;52.42;100275.41;5118787;28;8835;-64
2022/03/14 03:42:47;;;;;;;;;14.60;14.20;;;;;8.40;52.97;100285.06;5118312;28;8920;-68
2022/03/14 03:45:17;;;;;;;;;10.80;9.40;;;;;8.39;52.62;100298.44;5114772;28;8815;-65
2022/03/14 03:47:45;;;;;;;;;12.40;10.40;;;;;8.37;52.79;100295.88;5098084;28;9495;-64
2022/03/14 03:50:12;;;;;;;;;13.00;12.00;;;;;8.35;53.64;100292.47;5098373;28;8834;-64
2022/03/14 03:52:40;;;;;;;;;9.40;9.40;;;;;8.33;53.66;100297.03;5097048;28;8833;-64
2022/03/14 03:55:08;;;;;;;;;15.00;13.00;;;;;8.34;53.64;100296.09;5097939;28;8866;-64
2022/03/14 03:57:38;;;;;;;;;13.80;12.60;;;;;8.34;53.83;100296.09;5097891;28;8853;-64
2022/03/14 04:00:07;;;;;;;;;14.20;13.00;;;;;8.35;53.51;100303.09;5097744;28;8834;-65
2022/03/14 04:02:36;;;;;;;;;17.20;16.60;;;;;8.35;53.83;100302.25;5098182;28;8841;-65
2022/03/14 04:05:05;;;;;;;;;12.00;12.00;;;;;8.35;53.46;100303.09;5097970;28;8846;-65
2022/03/14 04:07:34;;;;;;;;;10.00;9.20;;;;;8.36;53.32;100307.44;5097530;28;8851;-69
2022/03/14 04:10:03;;;;;;;;;10.00;9.00;;;;;8.39;54.04;100312.56;5097960;28;8834;-64
2022/03/14 04:12:32;;;;;;;;;18.00;16.40;;;;;8.39;53.54;100309.91;5097316;28;8964;-65
2022/03/14 04:15:07;;;;;;;;;20.40;16.40;;;;;8.39;53.97;100319.66;5098036;28;8833;-64
2022/03/14 04:17:35;;;;;;;;;13.00;13.00;;;;;8.37;54.47;100316.25;5096042;28;8822;-63
2022/03/14 04:20:03;;;;;;;;;18.00;16.00;;;;;8.37;54.88;100314.44;5097032;28;8834;-64
2022/03/14 04:22:31;;;;;;;;;15.40;13.80;;;;;8.37;54.81;100326.88;5095509;28;8868;-64
2022/03/14 04:24:59;;;;;;;;;17.60;15.60;;;;;8.37;54.96;100327.72;5096699;28;8862;-64
2022/03/14 04:27:27;;;;;;;;;15.00;13.20;;;;;8.38;54.53;100329.41;5096124;28;9013;-64
2022/03/14 04:29:54;;;;;;;;;13.40;12.00;;;;;8.41;54.98;100329.22;5097144;28;8841;-67
2022/03/14 04:32:23;;;;;;;;;6.80;6.80;;;;;8.42;55.44;100330.94;5112735;28;8804;-64
2022/03/14 04:34:50;;;;;;;;;14.20;13.20;;;;;8.41;55.49;100334.53;5117376;28;8856;-64
2022/03/14 04:37:18;;;;;;;;;10.00;10.00;;;;;8.40;55.88;100334.63;5117503;28;8936;-64
2022/03/14 04:39:46;;;;;;;;;9.20;8.60;;;;;8.38;56.28;100342.69;5117476;28;8835;-66
2022/03/14 04:42:16;;;;;;;;;9.00;7.40;;;;;8.35;56.89;100345.53;5117591;28;8844;-65
2022/03/14 04:44:44;;;;;;;;;9.00;8.20;;;;;8.31;57.21;100344.06;5106306;28;9576;-65
2022/03/14 04:47:11;;;;;;;;;6.00;5.20;;;;;8.30;57.16;100352.09;5095816;28;8836;-65
2022/03/14 04:49:39;;;;;;;;;8.60;8.60;;;;;8.28;57.19;100356.66;5097251;28;8914;-65
2022/03/14 04:52:07;;;;;;;;;10.80;9.20;;;;;8.25;57.64;100352.41;5096809;28;8842;-65
2022/03/14 04:54:35;;;;;;;;;7.00;6.60;;;;;8.21;57.79;100366.78;5096897;28;8838;-65
2022/03/14 04:57:02;;;;;;;;;7.00;6.00;;;;;8.19;58.56;100381.09;5096574;28;8865;-65
2022/03/14 04:59:30;;;;;;;;;6.00;6.00;;;;;8.16;58.84;100387.44;5097651;28;8867;-65
2022/03/14 05:01:58;;;;;;;;;6.60;5.20;;;;;8.12;59.20;100383.25;5083633;28;8949;-65
2022/03/14 05:04:26;;;;;;;;;4.20;4.20;;;;;8.08;59.83;100375.59;5096272;28;8977;-65
2022/03/14 05:06:54;;;;;;;;;3.40;3.20;;;;;8.08;59.65;100380.88;5096353;28;9523;-65
2022/03/14 05:09:21;;;;;;;;;1.20;1.20;;;;;8.06;60.48;100380.13;5096562;28;8830;-64
2022/03/14 05:11:49;;;;;;;;;3.00;3.00;;;;;8.03;60.06;100373.22;5095860;28;8837;-65
2022/03/14 05:14:18;;;;;;;;;3.60;3.40;;;;;8.00;60.56;100378.69;5096664;28;8872;-65
2022/03/14 05:16:47;;;;;;;;;4.00;4.00;;;;;7.99;60.77;100378.81;5096401;28;9156;-67
2022/03/14 05:19:15;;;;;;;;;3.60;3.20;;;;;7.97;60.92;100373.59;5096481;28;8958;-64
2022/03/14 05:21:43;;;;;;;;;5.20;5.20;;;;;7.99;60.77;100376.16;5095902;28;8871;-65
2022/03/14 05:24:11;;;;;;;;;7.00;7.00;;;;;8.00;60.08;100384.00;5096113;28;9618;-64
2022/03/14 05:26:39;;;;;;;;;4.80;4.80;;;;;8.02;60.81;100375.97;5095478;28;8845;-64
2022/03/14 05:29:08;;;;;;;;;4.00;3.20;;;;;8.02;60.91;100381.25;5095577;28;9710;-64
2022/03/14 05:31:36;;;;;;;;;3.20;3.20;;;;;8.04;60.35;100387.31;5106809;28;8982;-64
2022/03/14 05:34:04;;;;;;;;;3.00;3.00;;;;;8.05;60.32;100389.88;5116239;28;8828;-64
2022/03/14 05:36:32;;;;;;;;;4.40;3.60;;;;;8.08;60.95;100402.97;5116317;28;8859;-64
2022/03/14 05:38:59;;;;;;;;;4.00;3.00;;;;;8.09;60.61;100396.72;5116223;28;8865;-63
2022/03/14 05:41:27;;;;;;;;;3.00;3.00;;;;;8.10;61.10;100403.72;5116037;28;8958;-65
2022/03/14 05:43:55;;;;;;;;;3.00;1.80;;;;;8.11;60.48;100405.44;5116024;28;8839;-64
2022/03/14 05:46:23;;;;;;;;;3.60;1.00;;;;;8.11;60.60;100408.06;5115863;28;8815;-64
2022/03/14 05:48:51;;;;;;;;;3.20;1.40;;;;;8.11;60.34;100409.88;5115196;28;8920;-64
2022/03/14 05:51:18;;;;;;;;;0.00;0.00;;;;;8.12;60.67;100416.88;5115054;28;8824;-64
2022/03/14 05:53:53;;;;;;;;;3.00;2.20;;;;;8.13;60.35;100422.09;5104794;28;8851;-68
2022/03/14 05:56:20;;;;;;;;;1.00;1.00;;;;;8.14;60.75;100418.47;5096878;28;8848;-63
2022/03/14 05:58:48;;;;;;;;;1.40;1.40;;;;;8.16;61.40;100429.00;5101490;28;8881;-64
2022/03/14 06:01:16;;;;;;;;;1.40;1.40;;;;;8.16;60.72;100423.69;5113938;28;8974;-63
2022/03/14 06:03:44;;;;;;;;;1.00;1.00;;;;;8.18;61.51;100421.78;5114379;28;8848;-64
2022/03/14 06:06:11;;;;;;;;;0.60;0.40;;;;;8.20;61.25;100434.06;5114983;28;8824;-64
2022/03/14 06:08:39;;;;;;;;;0.60;0.60;;;;;8.23;60.71;100447.16;5114433;28;8867;-64
2022/03/14 06:11:08;;;;;;;;;2.60;2.60;;;;;8.27;61.24;100446.00;5111404;28;8836;-63
2022/03/14 06:13:35;;;;;;;;;1.00;0.00;;;;;8.30;60.94;100452.91;5110893;28;8840;-63
2022/03/14 06:16:03;;;;;;;;;1.00;1.00;;;;;8.31;60.89;100454.63;5111579;28;8846;-64
2022/03/14 06:18:31;;;;;;;;;0.00;0.00;;;;;8.32;60.77;100457.19;5110976;28;8962;-64
2022/03/14 06:20:59;;;;;;;;;0.60;0.60;;;;;8.33;60.74;100452.72;5112142;28;8874;-63
2022/03/14 06:23:27;;;;;;;;;3.00;3.00;;;;;8.33;60.41;100458.00;5112979;28;9153;-64
2022/03/14 06:25:55;;;;;;;;;1.00;1.00;;;;;8.33;60.74;100465.97;5112462;28;8844;-63
2022/03/14 06:28:23;;;;;;;;;0.00;0.00;;;;;8.34;60.62;100467.69;5111633;28;8888;-64
2022/03/14 06:30:51;;;;;;;;;1.00;1.00;;;;;8.33;60.52;100466.84;5111585;28;8832;-64
2022/03/14 06:33:18;;;;;;;;;0.40;0.00;;;;;8.36;60.78;100474.59;5111458;28;8836;-64
2022/03/14 06:35:46;;;;;;;;;1.00;0.20;;;;;8.38;60.45;100472.69;5111913;28;8859;-64
2022/03/14 06:38:14;;;;;;;;;1.00;1.00;;;;;8.41;60.50;100475.19;5110678;28;8879;-64
2022/03/14 06:40:42;;;;;;;;;1.00;0.00;;;;;8.45;60.75;100475.84;5110164;28;8847;-63
2022/03/14 06:43:11;;;;;;;;;0.20;0.00;;;;;8.48;60.23;100484.47;5112297;28;8836;-64
2022/03/14 06:45:40;;;;;;;;;0.60;0.00;;;;;8.51;60.42;100486.06;5112121;28;8847;-64
2022/03/14 06:48:08;;;;;;;;;1.20;1.20;;;;;8.54;60.24;100478.78;5111355;28;8822;-64
2022/03/14 06:50:36;;;;;;;;;1.80;1.80;;;;;8.58;59.95;100484.75;5112488;28;8823;-63
2022/03/14 06:53:04;;;;;;;;;0.00;0.00;;;;;8.59;60.02;100492.59;5112041;28;8902;-63
2022/03/14 06:55:32;;;;;;;;;1.00;1.00;;;;;8.61;60.21;100488.06;5111222;28;8860;-63
2022/03/14 06:58:00;;;;;;;;;1.00;1.00;;;;;8.63;60.14;100488.81;5110204;28;9501;-63
2022/03/14 07:00:28;;;;;;;;;1.60;1.60;;;;;8.66;60.26;100501.88;5109593;28;9300;-63
2022/03/14 07:02:55;;;;;;;;;1.40;1.40;;;;;8.69;59.94;100499.06;5109409;28;8916;-64
2022/03/14 07:05:26;;;;;;;;;0.00;0.00;;;;;8.72;60.02;100501.50;5109370;28;9211;-63
2022/03/14 07:07:54;;;;;;;;;1.40;1.40;;;;;8.76;60.38;100504.81;5110478;28;8835;-63
2022/03/14 07:10:21;;;;;;;;;3.00;3.00;;;;;8.78;59.96;100506.44;5110024;28;8832;-63
2022/03/14 07:12:50;;;;;;;;;3.00;3.00;;;;;8.80;60.38;100512.50;5109876;28;8835;-63
2022/03/14 07:15:19;;;;;;;;;6.00;4.00;;;;;8.83;60.71;100512.28;5111146;28;8828;-63
2022/03/14 07:17:47;;;;;;;;;3.00;1.00;;;;;8.84;60.48;100508.69;5111014;28;8860;-63
2022/03/14 07:20:15;;;;;;;;;3.00;3.00;;;;;8.86;60.65;100513.88;5110579;28;8847;-63
2022/03/14 07:22:42;;;;;;;;;3.00;3.00;;;;;8.86;60.97;100517.41;5110134;28;8857;-63
2022/03/14 07:25:11;;;;;;;;;3.80;3.40;;;;;8.87;60.65;100512.94;5110592;28;8847;-63
2022/03/14 07:27:38;;;;;;;;;3.00;2.60;;;;;8.89;60.95;100521.69;5110700;28;9521;-63
2022/03/14 07:30:07;;;;;;;;;3.00;3.00;;;;;8.90;60.67;100521.56;5109646;28;8843;-63
2022/03/14 07:32:35;;;;;;;;;1.80;1.80;;;;;8.92;60.51;100526.78;5109619;28;8958;-63
2022/03/14 07:35:02;;;;;;;;;5.20;4.00;;;;;8.94;61.08;100531.06;5109032;28;8870;-63
2022/03/14 07:37:30;;;;;;;;;3.00;3.00;;;;;8.96;60.28;100520.34;5109355;28;8849;-64
2022/03/14 07:39:58;;;;;;;;;6.00;4.40;;;;;8.97;60.93;100530.03;5108573;28;8855;-63
2022/03/14 07:42:26;;;;;;;;;6.00;4.00;;;;;8.97;60.37;100530.84;5108583;28;8836;-63
2022/03/14 07:44:54;;;;;;;;;3.00;3.00;;;;;8.98;60.57;100537.88;5110475;28;8824;-63
2022/03/14 07:47:22;;;;;;;;;4.00;3.00;;;;;8.99;60.67;100544.91;5109627;28;8840;-63
2022/03/14 07:49:49;;;;;;;;;3.80;3.40;;;;;9.02;60.72;100544.69;5111128;28;8857;-64
2022/03/14 07:52:18;;;;;;;;;4.40;3.60;;;;;9.04;61.72;100542.78;5111058;28;8827;-64
2022/03/14 07:54:46;;;;;;;;;6.40;5.20;;;;;9.08;62.17;100546.97;5114054;28;8824;-64
2022/03/14 07:57:13;;;;;;;;;6.60;6.20;;;;;9.10;62.05;100553.03;5116025;28;9489;-64
2022/03/14 07:59:42;;;;;;;;;6.20;5.60;;;;;9.15;61.88;100552.75;5115246;28;8847;-64
2022/03/14 08:02:10;;;;;;;;;4.00;4.00;;;;;9.20;61.74;100555.97;5113738;28;8850;-64
2022/03/14 08:04:39;;;;;;;;;8.20;7.00;;;;;9.24;61.70;100555.66;5112695;28;8922;-64
2022/03/14 08:07:07;;;;;;;;;6.80;6.20;;;;;9.32;61.48;100555.16;5112882;28;8819;-64
2022/03/14 08:09:36;;;;;;;;;6.20;6.20;;;;;9.38;61.68;100563.59;5114495;28;8828;-64
2022/03/14 08:12:04;;;;;;;;;1.80;1.00;;;;;9.45;61.78;100564.03;5114784;28;8911;-64
2022/03/14 08:14:32;;;;;;;;;4.00;4.00;;;;;9.47;61.75;100560.34;5115550;28;8966;-65
2022/03/14 08:17:01;;;;;;;;;6.20;6.00;;;;;9.50;61.38;100567.28;5113571;28;8872;-64
2022/03/14 08:19:28;;;;;;;;;4.80;4.00;;;;;9.51;61.86;100568.97;5112787;28;8970;-64
2022/03/14 08:21:57;;;;;;;;;6.40;6.00;;;;;9.51;61.71;100576.94;5112035;28;9563;-64
2022/03/14 08:24:25;;;;;;;;;7.00;6.00;;;;;9.50;61.40;100585.88;5094951;28;8858;-64
2022/03/14 08:26:53;;;;;;;;;7.00;7.00;;;;;9.46;62.27;100590.53;5112684;28;8847;-64
2022/03/14 08:29:20;;;;;;;;;9.40;7.60;;;;;9.45;62.16;100594.16;5112984;28;8862;-64
2022/03/14 08:31:48;;;;;;;;;3.75;2.50;;;;;9.47;62.29;100600.22;5113752;28;8847;-64
2022/03/14 08:34:16;;;;;;;;;7.00;6.60;;;;;9.50;62.19;100607.97;5113060;28;8855;-64
2022/03/14 08:36:44;;;;;;;;;6.20;6.20;;;;;9.56;62.31;100609.41;5113681;28;8835;-64
2022/03/14 08:39:12;;;;;;;;;4.00;4.00;;;;;9.59;61.75;100602.09;5112395;28;8858;-64
2022/03/14 08:41:40;;;;;;;;;5.60;4.40;;;;;9.66;61.73;100608.69;5112524;28;8838;-64
2022/03/14 08:44:08;;;;;;;;;6.60;6.00;;;;;9.71;61.69;100619.06;5112768;28;8854;-64
2022/03/14 08:46:36;;;;;;;;;4.20;3.40;;;;;9.75;61.92;100621.41;5113619;28;8854;-64
2022/03/14 08:49:04;;;;;;;;;8.60;7.00;;;;;9.80;61.82;100616.63;5113471;28;8820;-64
2022/03/14 08:51:31;;;;;;;;;5.60;5.20;;;;;9.86;61.61;100626.03;5112825;28;8853;-64
2022/03/14 08:53:59;;;;;;;;;5.60;5.20;;;;;9.90;61.53;100625.72;5111850;28;8835;-64
2022/03/14 08:56:27;;;;;;;;;6.60;5.80;;;;;9.95;62.09;100634.22;5112663;28;8848;-63
2022/03/14 08:58:54;;;;;;;;;4.00;3.00;;;;;9.97;61.07;100627.03;5111883;28;9517;-63
2022/03/14 09:01:22;;;;;;;;;6.00;6.00;;;;;10.03;61.42;100631.94;5110412;28;8852;-63
2022/03/14 09:03:50;;;;;;;;;6.50;5.50;;;;;10.09;61.41;100626.22;5108786;28;8843;-64
2022/03/14 09:06:18;;;;;;;;;4.80;4.80;;;;;10.14;61.33;100624.13;5109013;28;9651;-63
2022/03/14 09:08:46;;;;;;;;;5.50;5.25;;;;;10.23;61.54;100626.16;5109460;28;8869;-63
2022/03/14 09:11:14;;;;;;;;;6.00;6.00;;;;;10.30;61.06;100635.44;5109391;28;8928;-64
2022/03/14 09:13:41;;;;;;;;;8.00;6.00;;;;;10.37;61.00;100631.41;5108753;28;8858;-64
2022/03/14 09:16:09;;;;;;;;;3.25;1.00;;;;;10.42;60.91;100637.28;5109729;28;8839;-64
2022/03/14 09:18:37;;;;;;;;;6.50;4.00;;;;;10.44;61.14;100651.34;5112289;28;8866;-64
2022/03/14 09:21:04;;;;;;;;;10.00;8.00;;;;;10.45;61.71;100650.38;5113493;28;8844;-64
2022/03/14 09:23:32;;;;;;;;;6.75;6.25;;;;;10.45;61.14;100647.72;5112866;28;8865;-64
2022/03/14 09:26:00;;;;;;;;;6.75;6.75;;;;;10.47;61.28;100656.44;5112673;28;8835;-63
2022/03/14 09:28:28;;;;;;;;;7.75;6.00;;;;;10.51;61.52;100647.31;5113095;28;8843;-64
2022/03/14 09:30:58;;;;;;;;;5.00;5.00;;;;;10.55;61.18;100656.78;5112314;28;8835;-64
2022/03/14 09:33:26;;;;;;;;;6.75;5.50;;;;;10.60;61.25;100660.00;5111889;28;9497;-64
2022/03/14 09:35:53;;;;;;;;;4.00;4.00;;;;;10.64;60.81;100665.97;5113096;28;8974;-63
2022/03/14 09:38:22;;;;;;;;;6.00;5.50;;;;;10.68;61.09;100664.78;5113274;28;8830;-63
2022/03/14 09:40:50;;;;;;;;;7.00;7.00;;;;;10.72;61.20;100667.16;5113130;28;8836;-63
2022/03/14 09:43:18;;;;;;;;;6.25;3.50;;;;;10.76;61.31;100667.78;5111613;28;8847;-63
2022/03/14 09:45:46;;;;;;;;;8.50;8.50;;;;;10.78;60.81;100668.53;5111665;28;8842;-63
2022/03/14 09:48:14;;;;;;;;;7.00;6.00;;;;;10.83;60.75;100672.56;5112394;28;8863;-64
2022/03/14 09:50:42;;;;;;;;;10.25;8.00;;;;;10.91;60.70;100670.22;5112219;28;8835;-63
2022/03/14 09:53:09;;;;;;;;;6.00;5.50;;;;;11.07;60.45;100672.69;5112120;28;8827;-63
2022/03/14 09:55:40;;;;;;;;;7.00;6.00;;;;;11.24;59.95;100680.34;5113010;28;8864;-63
2022/03/14 09:58:08;;;;;;;;;9.25;6.00;;;;;11.36;60.04;100684.84;5111941;28;8855;-63
2022/03/14 10:00:36;;;;;;;;;6.00;6.00;;;;;11.38;59.97;100689.06;5112649;28;8840;-63
2022/03/14 10:03:07;;;;;;;;;7.00;7.00;;;;;11.42;59.91;100697.72;5111267;28;8839;-63
2022/03/14 10:05:35;;;;;;;;;6.00;6.00;;;;;11.39;60.16;100701.44;5111704;28;8920;-63
2022/03/14 10:08:03;;;;;;;;;3.00;2.50;;;;;11.33;60.33;100701.91;5112204;28;8886;-63
2022/03/14 10:10:30;;;;;;;;;5.00;4.50;;;;;11.27;60.14;100706.78;5113612;28;8835;-64
2022/03/14 10:12:58;;;;;;;;;7.50;6.75;;;;;11.28;60.11;100708.50;5111028;28;8842;-64
2022/03/14 10:15:26;;;;;;;;;4.00;4.00;;;;;11.28;60.28;100717.34;5110969;28;8846;-63
2022/03/14 10:17:54;;;;;;;;;4.00;4.00;;;;;11.25;60.15;100716.72;5110706;28;8918;-64
2022/03/14 10:20:22;;;;;;;;;5.00;3.75;;;;;11.25;60.22;100714.91;5102247;28;8848;-64
2022/03/14 10:22:50;;;;;;;;;8.75;7.50;;;;;11.26;59.94;100721.94;5103133;28;8834;-64
2022/03/14 10:25:18;;;;;;;;;8.00;6.50;;;;;11.27;60.40;100725.44;5101592;28;8867;-63
2022/03/14 10:27:46;;;;;;;;;6.00;6.00;;;;;11.31;60.21;100734.97;5103908;28;8831;-63
2022/03/14 10:30:14;;;;;;;;;6.50;6.25;;;;;11.33;60.38;100733.03;5100829;28;8816;-63
2022/03/14 10:32:42;;;;;;;;;6.00;6.00;;;;;11.33;60.70;100736.56;5102390;28;8851;-63
2022/03/14 10:35:09;;;;;;;;;6.75;6.75;;;;;11.35;60.27;100744.44;5102937;28;9501;-63
2022/03/14 10:37:37;;;;;;;;;6.00;6.00;;;;;11.35;60.18;100744.44;5105121;28;8851;-63
2022/03/14 10:40:05;;;;;;;;;6.00;6.00;;;;;11.37;60.42;100746.03;5101360;28;8843;-63
2022/03/14 10:42:33;;;;;;;;;4.00;4.00;;;;;11.41;60.02;100755.53;5105067;28;9513;-63
2022/03/14 10:45:01;;;;;;;;;2.00;2.00;;;;;11.41;60.55;100757.34;5101603;28;8877;-63
2022/03/14 10:47:28;;;;;;;;;0.50;0.50;;;;;11.37;60.51;100756.69;5099465;28;9150;-63
2022/03/14 10:49:56;;;;;;;;;5.25;5.25;;;;;11.35;60.52;100774.63;5099160;28;8846;-63
2022/03/14 10:52:24;;;;;;;;;4.00;3.00;;;;;11.26;60.42;100772.59;5098933;28;8855;-63
2022/03/14 10:54:55;;;;;;;;;4.50;3.25;;;;;11.17;60.87;100775.91;5109671;28;8824;-63
2022/03/14 10:57:24;;;;;;;;;9.00;7.00;;;;;11.11;60.68;100783.47;5110598;28;8831;-63
2022/03/14 10:59:51;;;;;;;;;6.50;6.50;;;;;11.11;60.90;100784.31;5110613;28;8934;-63
2022/03/14 11:02:21;;;;;;;;;7.25;6.50;;;;;11.10;61.04;100787.97;5110173;28;9609;-63
2022/03/14 11:04:49;;;;;;;;;8.00;7.50;;;;;11.13;60.60;100787.72;5109881;28;8839;-63
2022/03/14 11:07:16;;;;;;;;;3.50;2.00;;;;;11.20;60.98;100788.16;5109571;28;8828;-63
2022/03/14 11:09:44;;;;;;;;;5.00;4.00;;;;;11.24;60.36;100793.16;5111934;28;8855;-65
2022/03/14 11:12:12;;;;;;;;;5.50;5.50;;;;;11.24;60.40;100797.66;5111059;28;8831;-62
2022/03/14 11:14:40;;;;;;;;;4.00;4.00;;;;;11.24;60.33;100793.16;5109942;28;8978;-64
2022/03/14 11:17:08;;;;;;;;;3.00;2.00;;;;;11.27;60.73;100792.97;5111717;28;8834;-64
2022/03/14 11:19:35;;;;;;;;;5.00;3.75;;;;;11.33;60.41;100789.88;5110605;28;8840;-63
2022/03/14 11:22:03;;;;;;;;;7.00;6.00;;;;;11.35;60.04;100787.97;5108738;28;8839;-63
2022/03/14 11:24:31;;;;;;;;;4.00;4.00;;;;;11.32;60.50;100790.84;5108542;28;9504;-63
2022/03/14 11:26:59;;;;;;;;;6.75;6.75;;;;;11.34;60.79;100796.94;5109766;28;8882;-64
2022/03/14 11:29:27;;;;;;;;;4.00;4.00;;;;;11.36;59.86;100792.34;5113865;28;8839;-63
2022/03/14 11:31:56;;;;;;;;;5.50;4.00;;;;;11.43;60.46;100795.41;5113106;28;9103;-63
2022/03/14 11:34:26;;;;;;;;;6.00;6.00;;;;;11.51;60.28;100785.94;5113325;28;8879;-63